Sidney Rae — WDJ3355 — position and weather

sailwx.info

Track history (hours):
 
Tides and Currents Weather Stations Pressure Air Temp Water Temp Dewpoint Dewpoint Depression Visibility Wind Speed Wind Dir Waves Ship Positions

Sidney Rae

Owner: ORION MARINE CONSTRUCTION, INC., PORT LAVACA, TX. More information available from US FCC via Universal Licensing System and Coast Guard Vessel Documentation Center.

Last reported at 2018-Feb-20 09:11 UTC. Time now 2018-Feb-25 17:43 UTC.
Position N 28°33' W 096°30'.

Length 20 m; draft 20 m.

Type: Tug. MMSI: 367767220.

Date/timePositionNaut miles runAvg speedWind from/ knotsBaromVisibWave heightAir tempDewpointWater temp
2018-Feb-20 09:11N 28°33' W 096°30'1 3.3
2018-Feb-20 08:59N 28°33' W 096°30'7 3.2
2018-Feb-20 06:46N 28°32' W 096°22'26 2.1
2018-Feb-19 18:37N 28°43' W 095°55'1 4.0
2018-Feb-19 18:24N 28°43' W 095°54'27 2.4
2018-Feb-19 07:11N 28°53' W 095°25'1 4.9
2018-Feb-19 07:00N 28°54' W 095°24'2 1.5
2018-Feb-19 05:50N 28°54' W 095°22'25 2.2
2018-Feb-18 18:18N 29°13' W 095°02'1 0.3
2018-Feb-18 15:50N 29°13' W 095°02'0 0.0
2018-Feb-18 14:40N 29°13' W 095°02'9 0.6
2018-Feb-17 22:05N 29°18' W 094°53'13 3.2
2018-Feb-17 18:06N 29°31' W 094°53'1 4.2
2018-Feb-17 17:57N 29°31' W 094°53'2 4.0
2018-Feb-17 17:30N 29°33' W 094°55'2 3.8
2018-Feb-17 17:00N 29°35' W 094°56'2 3.8
2018-Feb-17 16:30N 29°36' W 094°57'2 3.7
2018-Feb-17 16:00N 29°38' W 094°58'2 4.0
2018-Feb-17 15:31N 29°40' W 094°58'2 4.2
2018-Feb-17 15:00N 29°42' W 094°60'4 3.1
2018-Feb-17 13:42N 29°44' W 095°03'0 0.0
2018-Feb-17 06:28N 29°44' W 095°03'0 0.0
2018-Feb-17 05:39N 29°44' W 095°03'0 0.0
2018-Feb-17 05:30N 29°44' W 095°03'0 0.0
2018-Feb-17 04:24N 29°44' W 095°03'0 0.0
2018-Feb-17 03:26N 29°44' W 095°03'0 0.3
2018-Feb-17 02:10N 29°44' W 095°03'1 0.2
2018-Feb-16 22:51N 29°44' W 095°03'3 5.6
2018-Feb-16 22:20N 29°47' W 095°04'1 0.2
2018-Feb-16 19:04N 29°47' W 095°05'0 0.0
2018-Feb-16 19:00N 29°47' W 095°05'0 0.0
2018-Feb-16 18:30N 29°47' W 095°05'0 0.0
2018-Feb-16 18:00N 29°47' W 095°05'0 0.0
2018-Feb-16 17:30N 29°47' W 095°05'0 0.0
2018-Feb-16 16:58N 29°47' W 095°05'0 0.0
2018-Feb-16 16:30N 29°47' W 095°05'0 0.0
2018-Feb-16 16:00N 29°47' W 095°05'0 0.0
2018-Feb-16 15:22N 29°47' W 095°05'0 0.0
2018-Feb-16 14:57N 29°47' W 095°05'0 0.0
2018-Feb-16 14:23N 29°47' W 095°05'0 0.0
2018-Feb-16 13:54N 29°47' W 095°05'23 7.1
2018-Feb-16 10:43N 29°28' W 094°51'21 5.8
2018-Feb-16 07:03N 29°45' W 095°06'0 0.2
2018-Feb-16 05:20N 29°46' W 095°05'2 5.0
2018-Feb-16 04:55N 29°44' W 095°03'1 1.1
2018-Feb-16 04:27N 29°44' W 095°03'1 2.2
2018-Feb-16 04:00N 29°44' W 095°02'3 2.3
2018-Feb-16 02:48N 29°42' W 094°60'6 2.6
2018-Feb-16 00:36N 29°37' W 094°57'1 2.7
2018-Feb-16 00:15N 29°36' W 094°57'16 2.2
2018-Feb-15 17:12N 29°23' W 094°46'1 3.1
2018-Feb-15 16:51N 29°24' W 094°45'1 0.4
2018-Feb-15 13:17N 29°25' W 094°44'0 0.0
2018-Feb-15 12:05N 29°25' W 094°44'0 0.0
2018-Feb-15 10:53N 29°25' W 094°44'0 0.0
2018-Feb-15 10:28N 29°25' W 094°44'0 0.0
2018-Feb-15 09:58N 29°25' W 094°44'0 0.0
2018-Feb-15 09:29N 29°25' W 094°44'0 0.0
2018-Feb-15 09:00N 29°25' W 094°44'0 0.0
2018-Feb-15 08:28N 29°25' W 094°44'0 0.0
2018-Feb-15 07:58N 29°25' W 094°44'0 0.0
2018-Feb-15 07:30N 29°25' W 094°44'0 0.0
2018-Feb-15 07:00N 29°25' W 094°44'0 0.0
2018-Feb-15 06:28N 29°25' W 094°44'0 0.0
2018-Feb-15 06:00N 29°25' W 094°44'0 0.0
2018-Feb-15 05:29N 29°25' W 094°44'0 0.0
2018-Feb-15 05:00N 29°25' W 094°44'0 0.0
2018-Feb-15 04:30N 29°25' W 094°44'0 0.0
2018-Feb-15 04:00N 29°25' W 094°44'0 0.0
2018-Feb-15 03:30N 29°25' W 094°44'0 0.0
2018-Feb-15 03:00N 29°25' W 094°44'0 0.0
2018-Feb-15 02:30N 29°25' W 094°44'0 0.0
2018-Feb-15 01:52N 29°25' W 094°44'0 0.0
2018-Feb-15 01:21N 29°25' W 094°44'0 0.0
2018-Feb-15 01:00N 29°25' W 094°44'0 0.0
2018-Feb-15 00:28N 29°25' W 094°44'0 0.0
2018-Feb-14 23:59N 29°25' W 094°44'0 0.2
2018-Feb-14 23:27N 29°25' W 094°44'1 1.4
2018-Feb-14 22:58N 29°25' W 094°43'1 1.7
2018-Feb-14 22:30N 29°26' W 094°43'1 1.6
2018-Feb-14 21:57N 29°26' W 094°42'4 1.7
2018-Feb-14 19:28N 29°28' W 094°38'1 1.9
2018-Feb-14 18:58N 29°29' W 094°37'1 2.1
2018-Feb-14 18:30N 29°29' W 094°36'1 2.1
2018-Feb-14 17:49N 29°30' W 094°34'1 2.1
2018-Feb-14 17:27N 29°30' W 094°33'1 1.0
2018-Feb-14 16:52N 29°30' W 094°33'0 0.1
2018-Feb-14 16:30N 29°30' W 094°33'0 0.0
2018-Feb-14 04:14N 29°30' W 094°33'0 1.5
2018-Feb-14 03:59N 29°30' W 094°32'7 2.3
2018-Feb-14 00:55N 29°34' W 094°25'1 2.1
2018-Feb-14 00:27N 29°35' W 094°25'1 2.2
2018-Feb-13 23:55N 29°36' W 094°24'1 2.6
2018-Feb-13 23:30N 29°36' W 094°23'1 2.5
2018-Feb-13 22:59N 29°37' W 094°21'1 2.6
2018-Feb-13 22:30N 29°37' W 094°20'1 2.8
2018-Feb-13 22:00N 29°38' W 094°19'1 2.9
2018-Feb-13 21:30N 29°38' W 094°17'1 2.8
2018-Feb-13 21:00N 29°39' W 094°16'1 2.9
2018-Feb-13 20:30N 29°40' W 094°14'1 2.8
2018-Feb-13 19:59N 29°40' W 094°13'1 2.8
2018-Feb-13 19:30N 29°41' W 094°12'1 2.7
2018-Feb-13 19:00N 29°41' W 094°10'1 2.6
2018-Feb-13 18:30N 29°42' W 094°09'1 2.6
2018-Feb-13 18:00N 29°43' W 094°08'1 2.6
2018-Feb-13 17:30N 29°44' W 094°06'1 2.5
2018-Feb-13 17:00N 29°44' W 094°05'1 2.3
2018-Feb-13 16:30N 29°45' W 094°04'1 2.3
2018-Feb-13 16:00N 29°46' W 094°03'1 2.2
2018-Feb-13 15:30N 29°46' W 094°02'1 2.1
2018-Feb-13 15:00N 29°47' W 094°01'1 2.3
2018-Feb-13 14:30N 29°48' W 094°00'1 2.3
2018-Feb-13 14:00N 29°49' W 093°60'1 1.8
2018-Feb-13 13:30N 29°49' W 093°59'1 2.2
2018-Feb-13 13:00N 29°50' W 093°57'2 3.1
2018-Feb-13 12:30N 29°51' W 093°57'1 2.9
2018-Feb-13 12:00N 29°52' W 093°56'1 2.6
2018-Feb-13 11:30N 29°53' W 093°55'1 2.2
2018-Feb-13 11:00N 29°54' W 093°54'1 2.0
2018-Feb-13 10:30N 29°55' W 093°53'1 1.8
2018-Feb-13 10:00N 29°56' W 093°53'1 1.9
2018-Feb-13 09:30N 29°56' W 093°52'1 2.3
2018-Feb-13 09:00N 29°57' W 093°52'1 2.1
2018-Feb-13 08:30N 29°58' W 093°51'1 1.6
2018-Feb-13 08:00N 29°59' W 093°50'1 1.8
2018-Feb-13 07:30N 29°59' W 093°49'1 2.2
2018-Feb-13 07:00N 29°59' W 093°48'1 2.9
2018-Feb-13 06:30N 29°60' W 093°46'1 2.8
2018-Feb-13 06:00N 30°01' W 093°45'1 2.8
2018-Feb-13 05:30N 30°02' W 093°44'1 3.0
2018-Feb-13 05:00N 30°03' W 093°43'1 2.8
2018-Feb-13 04:30N 30°04' W 093°42'1 2.5
2018-Feb-13 04:00N 30°04' W 093°40'1 2.6
2018-Feb-13 03:30N 30°04' W 093°39'1 2.4
2018-Feb-13 03:00N 30°04' W 093°37'2 2.6
2018-Feb-13 02:22N 30°04' W 093°35'1 2.5
2018-Feb-13 01:58N 30°04' W 093°34'1 2.4
2018-Feb-13 01:30N 30°04' W 093°33'1 2.5
2018-Feb-13 01:00N 30°04' W 093°32'1 2.5
2018-Feb-13 00:30N 30°04' W 093°30'1 2.5
2018-Feb-13 00:00N 30°04' W 093°29'1 2.4
2018-Feb-12 23:30N 30°04' W 093°27'1 2.6
2018-Feb-12 23:00N 30°04' W 093°26'1 2.1
2018-Feb-12 22:30N 30°04' W 093°25'1 2.5
2018-Feb-12 21:59N 30°04' W 093°23'1 2.5
2018-Feb-12 21:29N 30°04' W 093°22'1 2.2
2018-Feb-12 20:54N 30°04' W 093°20'0 0.6
2018-Feb-12 20:27N 30°05' W 093°20'0 1.1
2018-Feb-12 20:00N 30°05' W 093°20'2 2.6
2018-Feb-12 19:25N 30°07' W 093°20'1 3.0
2018-Feb-12 19:00N 30°08' W 093°20'1 2.9
2018-Feb-12 18:30N 30°09' W 093°20'0 0.2
2018-Feb-12 18:00N 30°09' W 093°20'0 0.1
2018-Feb-12 17:29N 30°09' W 093°20'0 0.0
2018-Feb-12 17:00N 30°09' W 093°20'0 0.0
2018-Feb-12 16:29N 30°09' W 093°20'0 0.0
2018-Feb-12 16:00N 30°09' W 093°20'0 0.0
2018-Feb-12 15:30N 30°09' W 093°20'0 0.0
2018-Feb-12 14:58N 30°09' W 093°20'0 0.0
2018-Feb-12 14:29N 30°09' W 093°20'0 0.0
2018-Feb-12 14:00N 30°09' W 093°20'0 0.0
2018-Feb-12 13:30N 30°09' W 093°20'0 0.0
2018-Feb-12 13:00N 30°09' W 093°20'0 0.0
2018-Feb-12 12:30N 30°09' W 093°20'0 0.0
2018-Feb-12 11:59N 30°09' W 093°20'0 0.0
2018-Feb-12 11:27N 30°09' W 093°20'0 0.0
2018-Feb-12 10:59N 30°09' W 093°20'0 0.0
2018-Feb-12 10:30N 30°09' W 093°20'0 0.0
2018-Feb-12 09:55N 30°09' W 093°20'0 0.0
2018-Feb-12 09:25N 30°09' W 093°20'0 0.0
2018-Feb-12 09:00N 30°09' W 093°20'0 0.0
2018-Feb-12 08:28N 30°09' W 093°20'0 0.0
2018-Feb-12 08:00N 30°09' W 093°20'0 0.0
2018-Feb-12 07:30N 30°09' W 093°20'0 0.0
2018-Feb-12 06:58N 30°09' W 093°20'0 0.0
2018-Feb-12 06:30N 30°09' W 093°20'0 0.0
2018-Feb-12 05:55N 30°09' W 093°20'0 0.0
2018-Feb-12 05:30N 30°09' W 093°20'0 0.0
2018-Feb-12 05:00N 30°09' W 093°20'0 0.0
2018-Feb-12 04:30N 30°09' W 093°20'0 0.0
2018-Feb-12 03:57N 30°09' W 093°20'0 0.0
2018-Feb-12 03:30N 30°09' W 093°20'0 0.0
2018-Feb-12 02:59N 30°09' W 093°20'0 0.0
2018-Feb-12 02:28N 30°09' W 093°20'0 0.0
2018-Feb-12 02:00N 30°09' W 093°20'0 0.0
2018-Feb-12 01:30N 30°09' W 093°20'0 0.0
2018-Feb-12 01:00N 30°09' W 093°20'0 0.0
2018-Feb-12 00:30N 30°09' W 093°20'0 0.0
2018-Feb-12 00:00N 30°09' W 093°20'0 0.0
2018-Feb-11 23:30N 30°09' W 093°20'0 0.0
2018-Feb-11 23:00N 30°09' W 093°20'0 0.0
2018-Feb-11 22:30N 30°09' W 093°20'0 0.0
2018-Feb-11 22:00N 30°09' W 093°20'0 0.0
2018-Feb-11 21:29N 30°09' W 093°20'0 0.0
2018-Feb-11 20:55N 30°09' W 093°20'0 0.0
2018-Feb-11 20:30N 30°09' W 093°20'0 0.0
2018-Feb-11 20:00N 30°09' W 093°20'0 0.0
2018-Feb-11 19:27N 30°09' W 093°20'0 0.0
2018-Feb-11 19:00N 30°09' W 093°20'0 0.0
2018-Feb-11 18:30N 30°09' W 093°20'0 0.0
2018-Feb-11 18:01N 30°09' W 093°20'0 0.0
2018-Feb-11 17:30N 30°09' W 093°20'0 0.0
2018-Feb-11 17:00N 30°09' W 093°20'0 0.0
2018-Feb-11 16:30N 30°09' W 093°20'0 0.0
2018-Feb-11 16:00N 30°09' W 093°20'0 0.0
2018-Feb-11 15:30N 30°09' W 093°20'0 0.0
2018-Feb-11 15:00N 30°09' W 093°20'0 0.0
2018-Feb-11 14:30N 30°09' W 093°20'0 0.0
2018-Feb-11 14:00N 30°09' W 093°20'0 0.0
2018-Feb-11 13:30N 30°09' W 093°20'0 0.0
2018-Feb-11 13:00N 30°09' W 093°20'0 0.0
2018-Feb-11 12:30N 30°09' W 093°20'3 5.3
2018-Feb-11 12:00N 30°07' W 093°20'2 4.9
2018-Feb-11 11:30N 30°04' W 093°21'3 5.2
2018-Feb-11 11:00N 30°04' W 093°24'3 6.7
2018-Feb-11 10:30N 30°04' W 093°27'4 7.0
2018-Feb-11 10:00N 30°04' W 093°31'4 6.8
2018-Feb-11 09:29N 30°04' W 093°36'4 6.4
2018-Feb-11 08:56N 30°04' W 093°40'3 5.8
2018-Feb-11 08:30N 30°03' W 093°43'3 5.7
2018-Feb-11 08:00N 30°01' W 093°45'3 6.2
2018-Feb-11 07:30N 29°59' W 093°48'3 6.6
2018-Feb-11 07:00N 29°58' W 093°51'3 6.5
2018-Feb-11 06:30N 29°55' W 093°53'3 6.8
2018-Feb-11 06:00N 29°53' W 093°55'4 7.0
2018-Feb-11 05:30N 29°50' W 093°57'4 7.3
2018-Feb-11 05:00N 29°47' W 094°01'4 7.3
2018-Feb-11 04:30N 29°45' W 094°04'4 7.4
2018-Feb-11 04:00N 29°43' W 094°07'4 7.2
2018-Feb-11 03:30N 29°41' W 094°11'3 6.9
2018-Feb-11 03:00N 29°40' W 094°15'3 6.8
2018-Feb-11 02:30N 29°38' W 094°18'3 6.6
2018-Feb-11 02:00N 29°37' W 094°21'3 6.3
2018-Feb-11 01:30N 29°35' W 094°25'  
Track history (hours):
 
Tides and Currents Weather Stations Pressure Air Temp Water Temp Dewpoint Dewpoint Depression Visibility Wind Speed Wind Dir Waves Ship Positions

Sidney Rae

Owner: ORION MARINE CONSTRUCTION, INC., PORT LAVACA, TX. More information available from US FCC via Universal Licensing System and Coast Guard Vessel Documentation Center.

Last reported at 2018-Feb-20 09:11 UTC. Time now 2018-Feb-25 17:43 UTC.
Position N 28°33' W 096°30'.

Length 20 m; draft 20 m.

Type: Tug. MMSI: 367767220.

Date/timePositionNaut miles runAvg speedWind from/ knotsBaromVisibWave heightAir tempDewpointWater temp
2018-Feb-20 09:11N 28°33' W 096°30'1 3.3
2018-Feb-20 08:59N 28°33' W 096°30'7 3.2
2018-Feb-20 06:46N 28°32' W 096°22'26 2.1
2018-Feb-19 18:37N 28°43' W 095°55'1 4.0
2018-Feb-19 18:24N 28°43' W 095°54'27 2.4
2018-Feb-19 07:11N 28°53' W 095°25'1 4.9
2018-Feb-19 07:00N 28°54' W 095°24'2 1.5
2018-Feb-19 05:50N 28°54' W 095°22'25 2.2
2018-Feb-18 18:18N 29°13' W 095°02'1 0.3
2018-Feb-18 15:50N 29°13' W 095°02'0 0.0
2018-Feb-18 14:40N 29°13' W 095°02'9 0.6
2018-Feb-17 22:05N 29°18' W 094°53'13 3.2
2018-Feb-17 18:06N 29°31' W 094°53'1 4.2
2018-Feb-17 17:57N 29°31' W 094°53'2 4.0
2018-Feb-17 17:30N 29°33' W 094°55'2 3.8
2018-Feb-17 17:00N 29°35' W 094°56'2 3.8
2018-Feb-17 16:30N 29°36' W 094°57'2 3.7
2018-Feb-17 16:00N 29°38' W 094°58'2 4.0
2018-Feb-17 15:31N 29°40' W 094°58'2 4.2
2018-Feb-17 15:00N 29°42' W 094°60'4 3.1
2018-Feb-17 13:42N 29°44' W 095°03'0 0.0
2018-Feb-17 06:28N 29°44' W 095°03'0 0.0
2018-Feb-17 05:39N 29°44' W 095°03'0 0.0
2018-Feb-17 05:30N 29°44' W 095°03'0 0.0
2018-Feb-17 04:24N 29°44' W 095°03'0 0.0
2018-Feb-17 03:26N 29°44' W 095°03'0 0.3
2018-Feb-17 02:10N 29°44' W 095°03'1 0.2
2018-Feb-16 22:51N 29°44' W 095°03'3 5.6
2018-Feb-16 22:20N 29°47' W 095°04'1 0.2
2018-Feb-16 19:04N 29°47' W 095°05'0 0.0
2018-Feb-16 19:00N 29°47' W 095°05'0 0.0
2018-Feb-16 18:30N 29°47' W 095°05'0 0.0
2018-Feb-16 18:00N 29°47' W 095°05'0 0.0
2018-Feb-16 17:30N 29°47' W 095°05'0 0.0
2018-Feb-16 16:58N 29°47' W 095°05'0 0.0
2018-Feb-16 16:30N 29°47' W 095°05'0 0.0
2018-Feb-16 16:00N 29°47' W 095°05'0 0.0
2018-Feb-16 15:22N 29°47' W 095°05'0 0.0
2018-Feb-16 14:57N 29°47' W 095°05'0 0.0
2018-Feb-16 14:23N 29°47' W 095°05'0 0.0
2018-Feb-16 13:54N 29°47' W 095°05'23 7.1
2018-Feb-16 10:43N 29°28' W 094°51'21 5.8
2018-Feb-16 07:03N 29°45' W 095°06'0 0.2
2018-Feb-16 05:20N 29°46' W 095°05'2 5.0
2018-Feb-16 04:55N 29°44' W 095°03'1 1.1
2018-Feb-16 04:27N 29°44' W 095°03'1 2.2
2018-Feb-16 04:00N 29°44' W 095°02'3 2.3
2018-Feb-16 02:48N 29°42' W 094°60'6 2.6
2018-Feb-16 00:36N 29°37' W 094°57'1 2.7
2018-Feb-16 00:15N 29°36' W 094°57'16 2.2
2018-Feb-15 17:12N 29°23' W 094°46'1 3.1
2018-Feb-15 16:51N 29°24' W 094°45'1 0.4
2018-Feb-15 13:17N 29°25' W 094°44'0 0.0
2018-Feb-15 12:05N 29°25' W 094°44'0 0.0
2018-Feb-15 10:53N 29°25' W 094°44'0 0.0
2018-Feb-15 10:28N 29°25' W 094°44'0 0.0
2018-Feb-15 09:58N 29°25' W 094°44'0 0.0
2018-Feb-15 09:29N 29°25' W 094°44'0 0.0
2018-Feb-15 09:00N 29°25' W 094°44'0 0.0
2018-Feb-15 08:28N 29°25' W 094°44'0 0.0
2018-Feb-15 07:58N 29°25' W 094°44'0 0.0
2018-Feb-15 07:30N 29°25' W 094°44'0 0.0
2018-Feb-15 07:00N 29°25' W 094°44'0 0.0
2018-Feb-15 06:28N 29°25' W 094°44'0 0.0
2018-Feb-15 06:00N 29°25' W 094°44'0 0.0
2018-Feb-15 05:29N 29°25' W 094°44'0 0.0
2018-Feb-15 05:00N 29°25' W 094°44'0 0.0
2018-Feb-15 04:30N 29°25' W 094°44'0 0.0
2018-Feb-15 04:00N 29°25' W 094°44'0 0.0
2018-Feb-15 03:30N 29°25' W 094°44'0 0.0
2018-Feb-15 03:00N 29°25' W 094°44'0 0.0
2018-Feb-15 02:30N 29°25' W 094°44'0 0.0
2018-Feb-15 01:52N 29°25' W 094°44'0 0.0
2018-Feb-15 01:21N 29°25' W 094°44'0 0.0
2018-Feb-15 01:00N 29°25' W 094°44'0 0.0
2018-Feb-15 00:28N 29°25' W 094°44'0 0.0
2018-Feb-14 23:59N 29°25' W 094°44'0 0.2
2018-Feb-14 23:27N 29°25' W 094°44'1 1.4
2018-Feb-14 22:58N 29°25' W 094°43'1 1.7
2018-Feb-14 22:30N 29°26' W 094°43'1 1.6
2018-Feb-14 21:57N 29°26' W 094°42'4 1.7
2018-Feb-14 19:28N 29°28' W 094°38'1 1.9
2018-Feb-14 18:58N 29°29' W 094°37'1 2.1
2018-Feb-14 18:30N 29°29' W 094°36'1 2.1
2018-Feb-14 17:49N 29°30' W 094°34'1 2.1
2018-Feb-14 17:27N 29°30' W 094°33'1 1.0
2018-Feb-14 16:52N 29°30' W 094°33'0 0.1
2018-Feb-14 16:30N 29°30' W 094°33'0 0.0
2018-Feb-14 04:14N 29°30' W 094°33'0 1.5
2018-Feb-14 03:59N 29°30' W 094°32'7 2.3
2018-Feb-14 00:55N 29°34' W 094°25'1 2.1
2018-Feb-14 00:27N 29°35' W 094°25'1 2.2
2018-Feb-13 23:55N 29°36' W 094°24'1 2.6
2018-Feb-13 23:30N 29°36' W 094°23'1 2.5
2018-Feb-13 22:59N 29°37' W 094°21'1 2.6
2018-Feb-13 22:30N 29°37' W 094°20'1 2.8
2018-Feb-13 22:00N 29°38' W 094°19'1 2.9
2018-Feb-13 21:30N 29°38' W 094°17'1 2.8
2018-Feb-13 21:00N 29°39' W 094°16'1 2.9
2018-Feb-13 20:30N 29°40' W 094°14'1 2.8
2018-Feb-13 19:59N 29°40' W 094°13'1 2.8
2018-Feb-13 19:30N 29°41' W 094°12'1 2.7
2018-Feb-13 19:00N 29°41' W 094°10'1 2.6
2018-Feb-13 18:30N 29°42' W 094°09'1 2.6
2018-Feb-13 18:00N 29°43' W 094°08'1 2.6
2018-Feb-13 17:30N 29°44' W 094°06'1 2.5
2018-Feb-13 17:00N 29°44' W 094°05'1 2.3
2018-Feb-13 16:30N 29°45' W 094°04'1 2.3
2018-Feb-13 16:00N 29°46' W 094°03'1 2.2
2018-Feb-13 15:30N 29°46' W 094°02'1 2.1
2018-Feb-13 15:00N 29°47' W 094°01'1 2.3
2018-Feb-13 14:30N 29°48' W 094°00'1 2.3
2018-Feb-13 14:00N 29°49' W 093°60'1 1.8
2018-Feb-13 13:30N 29°49' W 093°59'1 2.2
2018-Feb-13 13:00N 29°50' W 093°57'2 3.1
2018-Feb-13 12:30N 29°51' W 093°57'1 2.9
2018-Feb-13 12:00N 29°52' W 093°56'1 2.6
2018-Feb-13 11:30N 29°53' W 093°55'1 2.2
2018-Feb-13 11:00N 29°54' W 093°54'1 2.0
2018-Feb-13 10:30N 29°55' W 093°53'1 1.8
2018-Feb-13 10:00N 29°56' W 093°53'1 1.9
2018-Feb-13 09:30N 29°56' W 093°52'1 2.3
2018-Feb-13 09:00N 29°57' W 093°52'1 2.1
2018-Feb-13 08:30N 29°58' W 093°51'1 1.6
2018-Feb-13 08:00N 29°59' W 093°50'1 1.8
2018-Feb-13 07:30N 29°59' W 093°49'1 2.2
2018-Feb-13 07:00N 29°59' W 093°48'1 2.9
2018-Feb-13 06:30N 29°60' W 093°46'1 2.8
2018-Feb-13 06:00N 30°01' W 093°45'1 2.8
2018-Feb-13 05:30N 30°02' W 093°44'1 3.0
2018-Feb-13 05:00N 30°03' W 093°43'1 2.8
2018-Feb-13 04:30N 30°04' W 093°42'1 2.5
2018-Feb-13 04:00N 30°04' W 093°40'1 2.6
2018-Feb-13 03:30N 30°04' W 093°39'1 2.4
2018-Feb-13 03:00N 30°04' W 093°37'2 2.6
2018-Feb-13 02:22N 30°04' W 093°35'1 2.5
2018-Feb-13 01:58N 30°04' W 093°34'1 2.4
2018-Feb-13 01:30N 30°04' W 093°33'1 2.5
2018-Feb-13 01:00N 30°04' W 093°32'1 2.5
2018-Feb-13 00:30N 30°04' W 093°30'1 2.5
2018-Feb-13 00:00N 30°04' W 093°29'1 2.4
2018-Feb-12 23:30N 30°04' W 093°27'1 2.6
2018-Feb-12 23:00N 30°04' W 093°26'1 2.1
2018-Feb-12 22:30N 30°04' W 093°25'1 2.5
2018-Feb-12 21:59N 30°04' W 093°23'1 2.5
2018-Feb-12 21:29N 30°04' W 093°22'1 2.2
2018-Feb-12 20:54N 30°04' W 093°20'0 0.6
2018-Feb-12 20:27N 30°05' W 093°20'0 1.1
2018-Feb-12 20:00N 30°05' W 093°20'2 2.6
2018-Feb-12 19:25N 30°07' W 093°20'1 3.0
2018-Feb-12 19:00N 30°08' W 093°20'1 2.9
2018-Feb-12 18:30N 30°09' W 093°20'0 0.2
2018-Feb-12 18:00N 30°09' W 093°20'0 0.1
2018-Feb-12 17:29N 30°09' W 093°20'0 0.0
2018-Feb-12 17:00N 30°09' W 093°20'0 0.0
2018-Feb-12 16:29N 30°09' W 093°20'0 0.0
2018-Feb-12 16:00N 30°09' W 093°20'0 0.0
2018-Feb-12 15:30N 30°09' W 093°20'0 0.0
2018-Feb-12 14:58N 30°09' W 093°20'0 0.0
2018-Feb-12 14:29N 30°09' W 093°20'0 0.0
2018-Feb-12 14:00N 30°09' W 093°20'0 0.0
2018-Feb-12 13:30N 30°09' W 093°20'0 0.0
2018-Feb-12 13:00N 30°09' W 093°20'0 0.0
2018-Feb-12 12:30N 30°09' W 093°20'0 0.0
2018-Feb-12 11:59N 30°09' W 093°20'0 0.0
2018-Feb-12 11:27N 30°09' W 093°20'0 0.0
2018-Feb-12 10:59N 30°09' W 093°20'0 0.0
2018-Feb-12 10:30N 30°09' W 093°20'0 0.0
2018-Feb-12 09:55N 30°09' W 093°20'0 0.0
2018-Feb-12 09:25N 30°09' W 093°20'0 0.0
2018-Feb-12 09:00N 30°09' W 093°20'0 0.0
2018-Feb-12 08:28N 30°09' W 093°20'0 0.0
2018-Feb-12 08:00N 30°09' W 093°20'0 0.0
2018-Feb-12 07:30N 30°09' W 093°20'0 0.0
2018-Feb-12 06:58N 30°09' W 093°20'0 0.0
2018-Feb-12 06:30N 30°09' W 093°20'0 0.0
2018-Feb-12 05:55N 30°09' W 093°20'0 0.0
2018-Feb-12 05:30N 30°09' W 093°20'0 0.0
2018-Feb-12 05:00N 30°09' W 093°20'0 0.0
2018-Feb-12 04:30N 30°09' W 093°20'0 0.0
2018-Feb-12 03:57N 30°09' W 093°20'0 0.0
2018-Feb-12 03:30N 30°09' W 093°20'0 0.0
2018-Feb-12 02:59N 30°09' W 093°20'0 0.0
2018-Feb-12 02:28N 30°09' W 093°20'0 0.0
2018-Feb-12 02:00N 30°09' W 093°20'0 0.0
2018-Feb-12 01:30N 30°09' W 093°20'0 0.0
2018-Feb-12 01:00N 30°09' W 093°20'0 0.0
2018-Feb-12 00:30N 30°09' W 093°20'0 0.0
2018-Feb-12 00:00N 30°09' W 093°20'0 0.0
2018-Feb-11 23:30N 30°09' W 093°20'0 0.0
2018-Feb-11 23:00N 30°09' W 093°20'0 0.0
2018-Feb-11 22:30N 30°09' W 093°20'0 0.0
2018-Feb-11 22:00N 30°09' W 093°20'0 0.0
2018-Feb-11 21:29N 30°09' W 093°20'0 0.0
2018-Feb-11 20:55N 30°09' W 093°20'0 0.0
2018-Feb-11 20:30N 30°09' W 093°20'0 0.0
2018-Feb-11 20:00N 30°09' W 093°20'0 0.0
2018-Feb-11 19:27N 30°09' W 093°20'0 0.0
2018-Feb-11 19:00N 30°09' W 093°20'0 0.0
2018-Feb-11 18:30N 30°09' W 093°20'0 0.0
2018-Feb-11 18:01N 30°09' W 093°20'0 0.0
2018-Feb-11 17:30N 30°09' W 093°20'0 0.0
2018-Feb-11 17:00N 30°09' W 093°20'0 0.0
2018-Feb-11 16:30N 30°09' W 093°20'0 0.0
2018-Feb-11 16:00N 30°09' W 093°20'0 0.0
2018-Feb-11 15:30N 30°09' W 093°20'0 0.0
2018-Feb-11 15:00N 30°09' W 093°20'0 0.0
2018-Feb-11 14:30N 30°09' W 093°20'0 0.0
2018-Feb-11 14:00N 30°09' W 093°20'0 0.0
2018-Feb-11 13:30N 30°09' W 093°20'0 0.0
2018-Feb-11 13:00N 30°09' W 093°20'0 0.0
2018-Feb-11 12:30N 30°09' W 093°20'3 5.3
2018-Feb-11 12:00N 30°07' W 093°20'2 4.9
2018-Feb-11 11:30N 30°04' W 093°21'3 5.2
2018-Feb-11 11:00N 30°04' W 093°24'3 6.7
2018-Feb-11 10:30N 30°04' W 093°27'4 7.0
2018-Feb-11 10:00N 30°04' W 093°31'4 6.8
2018-Feb-11 09:29N 30°04' W 093°36'4 6.4
2018-Feb-11 08:56N 30°04' W 093°40'3 5.8
2018-Feb-11 08:30N 30°03' W 093°43'3 5.7
2018-Feb-11 08:00N 30°01' W 093°45'3 6.2
2018-Feb-11 07:30N 29°59' W 093°48'3 6.6
2018-Feb-11 07:00N 29°58' W 093°51'3 6.5
2018-Feb-11 06:30N 29°55' W 093°53'3 6.8
2018-Feb-11 06:00N 29°53' W 093°55'4 7.0
2018-Feb-11 05:30N 29°50' W 093°57'4 7.3
2018-Feb-11 05:00N 29°47' W 094°01'4 7.3
2018-Feb-11 04:30N 29°45' W 094°04'4 7.4
2018-Feb-11 04:00N 29°43' W 094°07'4 7.2
2018-Feb-11 03:30N 29°41' W 094°11'3 6.9
2018-Feb-11 03:00N 29°40' W 094°15'3 6.8
2018-Feb-11 02:30N 29°38' W 094°18'3 6.6
2018-Feb-11 02:00N 29°37' W 094°21'3 6.3
2018-Feb-11 01:30N 29°35' W 094°25'  

Dump ship's entire track history